Time;durP1;ratioP1;P1;durP2;ratioP2;P2;SDS_P1;SDS_P2;PMS_P1;PMS_P2;Temp;Humidity;BMP_temperature;BMP_pressure;BME280_temperature;BME280_humidity;BME280_pressure;Samples;Min_cycle;Max_cycle;Signal;HPM_P1;HPM_P2
2023/08/20 00:02:10;;;;;;;44.83;34.08;;;27.10;75.20;;;;;;6117188;28;83721;-70
2023/08/20 00:05:11;;;;;;;30.60;24.23;;;27.10;75.70;;;;;;6114820;28;83357;-69
2023/08/20 00:08:11;;;;;;;20.02;16.75;;;27.10;75.50;;;;;;6114318;28;84303;-70
2023/08/20 00:11:12;;;;;;;18.08;13.88;;;27.10;75.30;;;;;;6122145;28;83208;-59
2023/08/20 00:14:12;;;;;;;16.75;11.60;;;27.10;75.30;;;;;;6124398;28;83381;-60
2023/08/20 00:17:13;;;;;;;15.25;11.50;;;27.10;75.30;;;;;;6119507;28;85830;-60
2023/08/20 00:20:13;;;;;;;12.65;10.32;;;27.10;75.60;;;;;;6100562;28;83551;-59
2023/08/20 00:23:14;;;;;;;15.50;11.05;;;27.10;76.10;;;;;;6099789;28;83518;-60
2023/08/20 00:26:15;;;;;;;14.82;11.13;;;27.10;76.40;;;;;;6100107;28;83239;-60
2023/08/20 00:29:15;;;;;;;13.02;9.75;;;27.20;76.60;;;;;;6120211;28;83138;-60
2023/08/20 00:32:16;;;;;;;13.20;9.90;;;27.20;76.20;;;;;;6129693;28;82992;-60
2023/08/20 00:35:16;;;;;;;12.07;9.30;;;27.20;75.70;;;;;;6129168;28;81914;-62
2023/08/20 00:38:17;;;;;;;12.48;10.13;;;27.20;76.10;;;;;;6102038;28;82352;-60
2023/08/20 00:41:18;;;;;;;10.82;9.13;;;27.20;76.40;;;;;;6102914;28;84583;-60
2023/08/20 00:44:19;;;;;;;11.00;9.02;;;27.20;76.20;;;;;;6103368;28;85791;-61
2023/08/20 00:47:19;;;;;;;11.98;9.13;;;27.20;76.10;;;;;;6112756;28;80436;-60
2023/08/20 00:50:20;;;;;;;10.85;9.32;;;27.30;76.50;;;;;;6125425;28;80506;-61
2023/08/20 00:53:20;;;;;;;8.70;7.78;;;27.30;76.50;;;;;;6126888;28;80980;-62
2023/08/20 00:56:22;;;;;;;11.90;8.85;;;27.30;76.70;;;;;;6146354;28;83686;-61
2023/08/20 00:59:23;;;;;;;10.85;7.97;;;27.30;76.90;;;;;;6133995;28;81765;-60
2023/08/20 01:02:23;;;;;;;9.68;7.97;;;27.40;77.10;;;;;;6120949;28;81017;-61
2023/08/20 01:05:24;;;;;;;11.63;9.05;;;27.40;76.90;;;;;;6138583;28;81423;-62
2023/08/20 01:08:24;;;;;;;11.27;8.43;;;27.30;77.10;;;;;;6125678;28;83474;-67
2023/08/20 01:11:25;;;;;;;10.70;8.13;;;27.30;76.70;;;;;;6123526;28;80694;-66
2023/08/20 01:14:25;;;;;;;17.02;7.97;;;27.30;77.70;;;;;;6096292;28;84102;-74
2023/08/20 01:17:26;;;;;;;11.15;8.05;;;27.30;77.30;;;;;;6102775;28;80369;-70
2023/08/20 01:20:26;;;;;;;8.77;7.40;;;27.30;77.40;;;;;;6145268;28;81503;-67
2023/08/20 01:23:27;;;;;;;8.30;6.90;;;27.30;77.10;;;;;;6113740;28;80833;-67
2023/08/20 01:26:28;;;;;;;12.20;7.78;;;27.30;76.30;;;;;;6127453;28;80511;-66
2023/08/20 01:29:28;;;;;;;9.82;8.15;;;27.20;76.00;;;;;;6108587;28;80558;-65
2023/08/20 01:32:30;;;;;;;11.65;8.45;;;27.30;76.30;;;;;;6112433;28;81658;-67
2023/08/20 01:35:30;;;;;;;11.77;8.13;;;27.30;75.70;;;;;;6118566;28;80747;-66
2023/08/20 01:38:49;;;;;;;10.65;8.05;;;27.30;75.10;;;;;;6107814;28;80597;-70
2023/08/20 01:41:49;;;;;;;10.05;8.30;;;27.20;74.60;;;;;;6136457;28;83501;-75
2023/08/20 01:44:50;;;;;;;10.27;7.72;;;27.20;74.70;;;;;;6138707;28;83677;-76
2023/08/20 01:47:50;;;;;;;10.25;7.88;;;27.10;75.10;;;;;;6154954;28;80330;-70
2023/08/20 01:50:51;;;;;;;10.13;7.65;;;27.10;74.80;;;;;;6137794;28;82632;-71
2023/08/20 01:53:51;;;;;;;11.15;7.97;;;27.10;74.80;;;;;;6130631;28;81840;-71
2023/08/20 01:56:52;;;;;;;12.98;8.18;;;27.10;74.70;;;;;;6142304;28;83598;-70
2023/08/20 01:59:52;;;;;;;19.48;8.90;;;27.00;75.10;;;;;;6136022;28;83234;-64
2023/08/20 02:02:53;;;;;;;16.33;8.18;;;27.00;75.10;;;;;;6134539;28;83641;-66
2023/08/20 02:05:53;;;;;;;11.55;7.60;;;27.00;75.40;;;;;;6134701;28;84279;-65
2023/08/20 02:08:54;;;;;;;10.05;7.78;;;27.00;75.80;;;;;;6129855;28;81126;-66
2023/08/20 02:11:57;;;;;;;8.32;7.35;;;27.10;76.10;;;;;;6143751;28;81435;-65
2023/08/20 02:14:58;;;;;;;9.20;7.82;;;27.10;76.10;;;;;;6129249;28;83184;-64
2023/08/20 02:18:01;;;;;;;12.43;7.50;;;27.10;76.10;;;;;;6143044;28;82131;-64
2023/08/20 02:21:02;;;;;;;10.25;7.63;;;27.20;76.10;;;;;;6129950;28;80409;-62
2023/08/20 02:24:03;;;;;;;10.40;7.75;;;27.20;75.70;;;;;;6141474;28;81715;-61
2023/08/20 02:27:03;;;;;;;10.32;7.28;;;27.10;75.50;;;;;;6105942;28;80435;-61
2023/08/20 02:30:04;;;;;;;11.45;7.45;;;27.10;75.40;;;;;;6121111;28;80884;-62
2023/08/20 02:33:04;;;;;;;9.23;7.60;;;27.10;75.40;;;;;;6118260;28;80558;-62
2023/08/20 02:36:05;;;;;;;11.63;7.45;;;27.10;75.50;;;;;;6110294;28;83371;-62
2023/08/20 02:39:07;;;;;;;9.82;8.10;;;27.10;75.40;;;;;;6116231;28;80905;-61
2023/08/20 02:42:09;;;;;;;11.65;7.85;;;27.10;75.10;;;;;;6107407;28;82501;-58
2023/08/20 02:45:10;;;;;;;9.77;8.13;;;27.10;76.50;;;;;;6106565;28;83483;-58
2023/08/20 02:48:10;;;;;;;8.85;7.78;;;27.10;77.00;;;;;;6106000;28;80238;-58
2023/08/20 02:51:11;;;;;;;10.98;8.15;;;27.20;77.30;;;;;;6117894;28;80563;-58
2023/08/20 02:54:11;;;;;;;9.75;7.82;;;27.10;76.40;;;;;;6118548;28;81453;-58
2023/08/20 02:57:12;;;;;;;12.25;7.93;;;27.10;75.30;;;;;;6130130;28;80383;-69
2023/08/20 03:00:13;;;;;;;9.57;8.43;;;27.10;75.30;;;;;;6152185;28;82072;-66
2023/08/20 03:03:14;;;;;;;10.68;7.80;;;27.10;75.40;;;;;;6135035;28;83153;-70
2023/08/20 03:06:16;;;;;;;11.45;7.80;;;27.10;75.70;;;;;;6134435;28;82222;-69
2023/08/20 03:09:17;;;;;;;9.48;7.50;;;27.10;75.80;;;;;;6132069;28;81511;-72
2023/08/20 03:12:18;;;;;;;8.82;7.90;;;27.10;76.30;;;;;;6138956;28;80790;-75
2023/08/20 03:15:18;;;;;;;9.32;7.40;;;27.10;76.10;;;;;;6139962;28;81547;-59
2023/08/20 03:18:19;;;;;;;8.52;7.63;;;27.10;76.10;;;;;;6159397;28;80483;-60
2023/08/20 03:21:19;;;;;;;9.50;7.88;;;27.10;75.40;;;;;;6125243;28;81054;-61
2023/08/20 03:24:20;;;;;;;9.98;8.25;;;27.10;74.90;;;;;;6117871;28;80530;-60
2023/08/20 03:27:20;;;;;;;8.57;7.72;;;27.10;74.80;;;;;;6125536;28;83071;-61
2023/08/20 03:30:21;;;;;;;8.82;7.78;;;27.00;74.90;;;;;;6161944;28;82404;-60
2023/08/20 03:33:22;;;;;;;10.65;8.00;;;27.00;75.00;;;;;;6130359;28;81726;-59
2023/08/20 03:36:22;;;;;;;13.30;8.15;;;27.00;75.00;;;;;;6128957;28;81373;-59
2023/08/20 03:39:23;;;;;;;8.82;7.93;;;26.90;75.30;;;;;;6126730;28;81771;-59
2023/08/20 03:42:23;;;;;;;9.13;8.23;;;27.00;75.90;;;;;;6127087;28;80296;-59
2023/08/20 03:45:24;;;;;;;9.77;7.50;;;27.10;76.10;;;;;;6135499;28;80532;-59
2023/08/20 03:48:26;;;;;;;10.68;7.60;;;27.10;75.90;;;;;;6136512;28;82443;-57
2023/08/20 03:51:27;;;;;;;10.20;7.85;;;27.10;76.00;;;;;;6123791;28;82458;-59
2023/08/20 03:54:27;;;;;;;10.55;8.23;;;27.10;75.80;;;;;;6137993;28;83429;-59
2023/08/20 03:57:28;;;;;;;14.57;8.80;;;27.10;75.90;;;;;;6127030;28;80774;-59
2023/08/20 04:00:28;;;;;;;9.30;7.50;;;27.10;75.90;;;;;;6128069;28;80506;-61
2023/08/20 04:03:29;;;;;;;9.13;7.80;;;27.20;76.10;;;;;;6126285;28;83202;-64
2023/08/20 04:06:29;;;;;;;9.27;6.75;;;27.20;76.70;;;;;;6127575;28;81266;-64
2023/08/20 04:09:30;;;;;;;11.52;7.90;;;27.20;76.60;;;;;;6126780;28;82500;-62
2023/08/20 04:12:30;;;;;;;10.15;7.85;;;27.20;76.50;;;;;;6138565;28;80357;-62
2023/08/20 04:15:31;;;;;;;10.00;7.47;;;27.20;76.20;;;;;;6114889;28;83562;-63
2023/08/20 04:18:31;;;;;;;7.70;6.95;;;27.20;76.10;;;;;;6144818;28;83555;-62
2023/08/20 04:21:32;;;;;;;8.43;7.53;;;27.20;76.20;;;;;;6132138;28;80371;-64
2023/08/20 04:24:33;;;;;;;12.85;8.18;;;27.20;76.40;;;;;;6103583;28;83868;-63
2023/08/20 04:27:34;;;;;;;10.68;8.27;;;27.20;76.50;;;;;;6126613;28;82050;-62
2023/08/20 04:30:34;;;;;;;11.18;8.18;;;27.20;76.40;;;;;;6146976;28;81541;-60
2023/08/20 04:33:35;;;;;;;8.57;7.65;;;27.30;76.30;;;;;;6137060;28;83366;-60
2023/08/20 04:36:35;;;;;;;11.57;7.90;;;27.20;76.30;;;;;;6126716;28;83121;-61
2023/08/20 04:39:36;;;;;;;10.60;8.15;;;27.30;76.00;;;;;;6104436;28;80200;-59
2023/08/20 04:42:37;;;;;;;8.43;7.43;;;27.20;75.60;;;;;;6114472;28;83211;-60
2023/08/20 04:45:38;;;;;;;8.52;7.63;;;27.20;75.70;;;;;;6101582;28;81395;-58
2023/08/20 04:48:39;;;;;;;8.10;7.28;;;27.20;75.70;;;;;;6116208;28;83685;-71
2023/08/20 04:51:39;;;;;;;8.25;7.38;;;27.20;75.50;;;;;;6134737;28;83772;-66
2023/08/20 04:54:40;;;;;;;9.15;7.65;;;27.30;75.60;;;;;;6119231;28;81136;-73
2023/08/20 04:57:42;;;;;;;11.65;7.97;;;27.30;75.50;;;;;;6138709;28;83306;-72
2023/08/20 05:00:43;;;;;;;12.70;7.90;;;27.30;75.60;;;;;;6146354;28;83762;-75
2023/08/20 05:03:47;;;;;;;9.18;7.30;;;27.30;75.60;;;;;;6130694;28;83318;-73
2023/08/20 05:06:49;;;;;;;11.05;7.78;;;27.30;75.50;;;;;;6120113;28;83476;-60
2023/08/20 05:09:49;;;;;;;9.52;7.68;;;27.30;75.40;;;;;;6134712;28;83304;-67
2023/08/20 05:12:50;;;;;;;8.52;7.63;;;27.30;75.30;;;;;;6127353;28;81323;-64
2023/08/20 05:15:51;;;;;;;9.80;8.07;;;27.30;74.90;;;;;;6139874;28;83417;-64
2023/08/20 05:18:52;;;;;;;9.65;7.85;;;27.30;75.30;;;;;;6152327;28;83475;-76
2023/08/20 05:21:55;;;;;;;10.15;8.40;;;27.30;75.40;;;;;;6125413;28;82240;-63
2023/08/20 05:24:56;;;;;;;9.80;7.85;;;27.20;75.40;;;;;;6120945;28;83250;-58
2023/08/20 05:27:57;;;;;;;9.98;8.10;;;27.30;75.60;;;;;;6139942;28;81391;-59
2023/08/20 05:30:57;;;;;;;9.52;7.85;;;27.40;76.30;;;;;;6132530;28;80785;-61
2023/08/20 05:33:58;;;;;;;16.40;7.78;;;27.40;76.50;;;;;;6124925;28;81174;-61
2023/08/20 05:36:58;;;;;;;13.52;7.43;;;27.40;76.20;;;;;;6132994;28;82845;-62
2023/08/20 05:39:59;;;;;;;10.75;7.25;;;27.40;76.50;;;;;;6147824;28;81622;-60
2023/08/20 05:43:00;;;;;;;11.07;8.20;;;27.40;77.00;;;;;;6123976;28;83156;-58
2023/08/20 05:46:00;;;;;;;10.80;7.82;;;27.50;77.40;;;;;;6121704;28;83212;-61
2023/08/20 05:49:01;;;;;;;8.65;7.72;;;27.50;77.40;;;;;;6140149;28;83010;-62
2023/08/20 05:52:06;;;;;;;8.43;7.33;;;27.50;77.40;;;;;;6147661;28;81460;-59
2023/08/20 05:55:07;;;;;;;12.15;7.85;;;27.50;78.20;;;;;;6161524;28;83509;-59
2023/08/20 05:58:07;;;;;;;15.55;8.02;;;27.60;78.50;;;;;;6135797;28;82296;-59
2023/08/20 06:01:08;;;;;;;11.15;8.10;;;27.60;79.50;;;;;;6156076;28;83484;-58
2023/08/20 06:04:09;;;;;;;12.98;8.23;;;27.70;80.10;;;;;;6147212;28;83080;-62
2023/08/20 06:07:09;;;;;;;11.88;8.48;;;27.60;78.00;;;;;;6161183;28;80596;-60
2023/08/20 06:10:11;;;;;;;11.02;8.95;;;27.70;79.10;;;;;;6154463;28;84594;-62
2023/08/20 06:13:12;;;;;;;13.52;8.30;;;27.70;78.80;;;;;;6127047;28;80495;-60
2023/08/20 06:16:12;;;;;;;12.75;8.77;;;27.70;79.00;;;;;;6125131;28;80914;-59
2023/08/20 06:19:13;;;;;;;9.35;8.35;;;27.70;78.80;;;;;;6148911;28;80945;-62
2023/08/20 06:22:13;;;;;;;11.18;8.05;;;27.80;78.90;;;;;;6109373;28;80525;-69
2023/08/20 06:25:14;;;;;;;11.50;8.70;;;27.80;78.80;;;;;;6108528;28;82308;-68
2023/08/20 06:28:14;;;;;;;13.25;8.13;;;27.80;78.50;;;;;;6122586;28;80343;-70
2023/08/20 06:31:15;;;;;;;11.25;8.57;;;27.80;78.60;;;;;;6121487;28;80840;-68
2023/08/20 06:34:15;;;;;;;13.52;8.30;;;27.80;79.00;;;;;;6129628;28;80677;-68
2023/08/20 06:37:16;;;;;;;19.52;9.00;;;27.80;79.10;;;;;;6113371;28;80103;-65
2023/08/20 06:40:16;;;;;;;13.50;9.50;;;27.90;79.20;;;;;;6120090;28;80473;-68
2023/08/20 06:43:17;;;;;;;11.23;8.38;;;27.90;79.00;;;;;;6107549;28;80968;-71
2023/08/20 06:46:17;;;;;;;10.85;8.90;;;27.90;79.00;;;;;;6149379;28;82954;-71
2023/08/20 06:49:18;;;;;;;12.00;9.18;;;27.90;78.30;;;;;;6119269;28;80486;-70
2023/08/20 06:52:18;;;;;;;11.32;9.20;;;28.00;79.30;;;;;;6104479;28;83468;-67
2023/08/20 06:55:19;;;;;;;12.65;9.88;;;28.00;79.50;;;;;;6119143;28;81065;-59
2023/08/20 06:58:19;;;;;;;12.77;9.25;;;27.90;77.40;;;;;;6112109;28;80634;-60
2023/08/20 07:01:20;;;;;;;11.23;9.18;;;27.90;76.70;;;;;;6123111;28;80279;-60
2023/08/20 07:04:20;;;;;;;10.10;8.77;;;27.80;76.40;;;;;;6131478;28;80850;-60
2023/08/20 07:07:22;;;;;;;12.73;9.45;;;27.80;76.30;;;;;;6119440;28;81251;-60
2023/08/20 07:10:22;;;;;;;13.43;9.10;;;27.90;76.20;;;;;;6120577;28;80649;-60
2023/08/20 07:13:23;;;;;;;11.65;8.73;;;27.90;76.60;;;;;;6134907;28;80157;-73
2023/08/20 07:16:23;;;;;;;10.60;8.90;;;28.00;77.90;;;;;;6127328;28;80267;-75
2023/08/20 07:19:24;;;;;;;12.32;9.68;;;28.10;78.30;;;;;;6126317;28;82683;-68
2023/08/20 07:22:24;;;;;;;11.73;9.20;;;28.10;77.60;;;;;;6112085;28;80372;-67
2023/08/20 07:25:25;;;;;;;12.93;10.05;;;28.10;76.90;;;;;;6127332;28;80559;-73
2023/08/20 07:28:56;;;;;;;13.13;9.35;;;28.00;75.90;;;;;;6095532;28;83731;-69
2023/08/20 07:31:48;;;;;;;14.57;10.13;;;28.10;75.40;;;;;;6140639;28;81994;-61
2023/08/20 07:34:49;;;;;;;11.50;9.73;;;28.10;76.20;;;;;;6138289;28;83089;-61
2023/08/20 07:37:49;;;;;;;11.02;9.45;;;28.00;73.30;;;;;;6134137;28;83537;-63
2023/08/20 07:40:50;;;;;;;10.88;8.48;;;27.80;70.90;;;;;;6120226;28;81512;-67
2023/08/20 07:43:51;;;;;;;12.88;9.20;;;27.60;68.70;;;;;;6125418;28;80891;-68
2023/08/20 07:46:51;;;;;;;12.32;9.90;;;27.50;67.20;;;;;;6121858;28;81427;-59
2023/08/20 07:49:52;;;;;;;12.43;9.38;;;27.30;65.40;;;;;;6126674;28;81310;-68
2023/08/20 07:52:52;;;;;;;11.60;9.45;;;27.30;69.50;;;;;;6114976;28;80430;-73
2023/08/20 07:55:53;;;;;;;12.35;9.82;;;27.40;74.80;;;;;;6128164;28;80413;-66
2023/08/20 07:58:53;;;;;;;12.23;9.88;;;27.50;78.60;;;;;;6119644;28;81376;-75
2023/08/20 08:01:54;;;;;;;17.17;11.20;;;27.60;80.00;;;;;;6120136;28;80733;-70
2023/08/20 08:04:54;;;;;;;14.75;10.32;;;27.40;74.40;;;;;;6118723;28;82761;-69
2023/08/20 08:07:55;;;;;;;13.07;10.50;;;27.30;71.10;;;;;;6116755;28;84011;-74
2023/08/20 08:10:55;;;;;;;10.70;9.45;;;27.10;69.10;;;;;;6129665;28;83255;-64
2023/08/20 08:13:56;;;;;;;10.20;9.18;;;27.00;66.90;;;;;;6128930;28;82921;-61
2023/08/20 08:16:56;;;;;;;12.32;9.73;;;27.00;65.60;;;;;;6122571;28;80895;-60
2023/08/20 08:19:58;;;;;;;13.13;9.45;;;26.90;64.60;;;;;;6123832;28;80811;-59
2023/08/20 08:22:58;;;;;;;10.02;9.02;;;26.90;63.70;;;;;;6115502;28;81335;-60
2023/08/20 08:25:59;;;;;;;13.80;9.88;;;26.90;64.10;;;;;;6129570;28;80518;-63
2023/08/20 08:28:59;;;;;;;14.20;9.63;;;26.80;63.40;;;;;;6118696;28;81394;-69
2023/08/20 08:32:00;;;;;;;12.43;9.75;;;26.80;63.20;;;;;;6110412;28;80451;-67
2023/08/20 08:35:00;;;;;;;12.82;9.57;;;26.80;63.20;;;;;;6127871;28;80980;-69
2023/08/20 08:38:03;;;;;;;17.23;9.80;;;26.70;62.70;;;;;;6129219;28;82539;-68
2023/08/20 08:41:03;;;;;;;11.80;9.85;;;26.70;62.50;;;;;;6133738;28;81682;-70
2023/08/20 08:44:04;;;;;;;12.23;9.85;;;26.70;62.20;;;;;;6131203;28;82917;-63
2023/08/20 08:47:04;;;;;;;13.98;9.93;;;26.70;62.20;;;;;;6124460;28;81213;-75
2023/08/20 08:50:05;;;;;;;12.55;9.88;;;26.70;62.50;;;;;;6133177;28;80736;-69
2023/08/20 08:53:05;;;;;;;20.85;10.52;;;26.70;62.50;;;;;;6128042;28;80874;-64
2023/08/20 08:56:06;;;;;;;18.70;11.93;;;26.70;63.00;;;;;;6123738;28;84724;-70
2023/08/20 08:59:06;;;;;;;14.82;11.85;;;26.70;63.40;;;;;;6119801;28;83969;-62
2023/08/20 09:02:07;;;;;;;16.70;11.85;;;26.70;62.80;;;;;;6130334;28;83129;-70
2023/08/20 09:05:07;;;;;;;14.48;11.27;;;26.70;62.10;;;;;;6129412;28;83249;-67
2023/08/20 09:08:08;;;;;;;15.82;10.75;;;26.70;61.40;;;;;;6143701;28;83536;-66
2023/08/20 09:11:08;;;;;;;31.38;12.07;;;26.70;64.90;;;;;;6135959;28;83865;-70
2023/08/20 09:14:09;;;;;;;14.00;12.43;;;26.90;71.80;;;;;;6125551;28;84379;-69
2023/08/20 09:17:09;;;;;;;14.80;12.07;;;27.00;76.40;;;;;;6127410;28;83331;-69
2023/08/20 09:20:10;;;;;;;16.65;12.85;;;27.10;79.70;;;;;;6136739;28;83283;-66
2023/08/20 09:23:11;;;;;;;16.65;13.57;;;27.20;82.40;;;;;;6118141;28;84327;-68
2023/08/20 09:26:13;;;;;;;16.05;13.00;;;27.30;84.80;;;;;;6117132;28;83330;-64
2023/08/20 09:29:14;;;;;;;19.10;12.43;;;27.50;86.30;;;;;;6118276;28;83196;-64
2023/08/20 09:32:15;;;;;;;13.95;12.40;;;27.20;81.10;;;;;;6139682;28;84425;-68
2023/08/20 09:35:15;;;;;;;13.15;11.55;;;26.80;76.20;;;;;;6150275;28;85575;-74
2023/08/20 09:38:16;;;;;;;15.48;11.18;;;26.70;73.40;;;;;;6109917;28;84060;-65
2023/08/20 09:41:17;;;;;;;11.70;10.50;;;26.50;71.20;;;;;;6131123;28;85571;-61
2023/08/20 09:44:17;;;;;;;16.20;11.80;;;26.30;70.20;;;;;;6125467;28;83395;-61
2023/08/20 09:47:18;;;;;;;13.00;11.60;;;26.20;68.50;;;;;;6109316;28;83349;-59
2023/08/20 09:50:18;;;;;;;13.60;12.20;;;26.10;67.50;;;;;;6107232;28;85528;-56
2023/08/20 09:53:19;;;;;;;14.95;12.50;;;26.00;66.50;;;;;;6119319;28;83670;-58
2023/08/20 09:56:19;;;;;;;13.48;12.07;;;25.90;66.30;;;;;;6118041;28;88709;-60
2023/08/20 09:59:20;;;;;;;14.55;11.65;;;25.90;65.30;;;;;;6104608;28;83891;-57
2023/08/20 10:02:20;;;;;;;20.10;11.52;;;25.90;66.20;;;;;;6119487;28;84647;-59
2023/08/20 10:05:21;;;;;;;13.10;11.50;;;25.90;65.10;;;;;;6114561;28;84685;-62
2023/08/20 10:08:21;;;;;;;13.27;11.27;;;26.10;64.70;;;;;;6107822;28;82813;-59
2023/08/20 10:11:22;;;;;;;15.95;11.48;;;26.20;63.90;;;;;;6112977;28;86657;-61
2023/08/20 10:14:22;;;;;;;12.57;10.82;;;26.30;64.00;;;;;;6131031;28;83075;-65
2023/08/20 10:17:23;;;;;;;25.45;18.40;;;26.40;64.70;;;;;;6125234;28;82894;-61
2023/08/20 10:20:24;;;;;;;26.42;17.30;;;26.50;65.30;;;;;;6111554;28;85056;-60
2023/08/20 10:23:24;;;;;;;22.10;14.82;;;26.50;64.20;;;;;;6110767;28;88222;-60
2023/08/20 10:26:26;;;;;;;19.55;13.38;;;26.50;63.80;;;;;;6125565;28;86924;-65
2023/08/20 10:29:26;;;;;;;17.63;12.95;;;26.50;63.00;;;;;;6103726;28;83209;-64
2023/08/20 10:32:27;;;;;;;176.30;52.92;;;26.50;62.20;;;;;;6113445;28;86076;-64
2023/08/20 10:35:27;;;;;;;80.60;31.30;;;26.50;62.70;;;;;;6115499;28;83466;-62
2023/08/20 10:38:28;;;;;;;53.38;22.63;;;26.60;62.60;;;;;;6124014;28;84167;-61
2023/08/20 10:41:28;;;;;;;28.05;15.95;;;26.50;63.90;;;;;;6123669;28;84023;-61
2023/08/20 10:44:29;;;;;;;22.02;14.02;;;26.60;68.90;;;;;;6122814;28;83576;-63
2023/08/20 10:47:29;;;;;;;25.08;13.52;;;27.00;70.20;;;;;;6124469;28;83537;-62
2023/08/20 10:50:31;;;;;;;22.63;12.82;;;27.30;70.00;;;;;;6120063;28;84140;-60
2023/08/20 10:53:31;;;;;;;18.08;12.73;;;27.50;73.70;;;;;;6123052;28;83872;-58
2023/08/20 10:56:32;;;;;;;17.05;12.77;;;27.30;67.90;;;;;;6119596;28;83090;-59
2023/08/20 10:59:35;;;;;;;16.67;11.70;;;27.10;65.70;;;;;;6125215;28;84022;-58
2023/08/20 11:02:36;;;;;;;12.73;10.80;;;26.80;64.30;;;;;;6125158;28;83541;-60
2023/08/20 11:05:36;;;;;;;16.42;11.63;;;26.60;63.50;;;;;;6125475;28;84548;-60
2023/08/20 11:08:37;;;;;;;17.60;10.65;;;26.50;62.60;;;;;;6115532;28;84549;-62
2023/08/20 11:11:37;;;;;;;14.50;10.27;;;26.40;62.90;;;;;;6126206;28;83191;-62
2023/08/20 11:14:38;;;;;;;11.95;9.85;;;26.40;63.20;;;;;;6120373;28;86365;-70
2023/08/20 11:17:38;;;;;;;15.10;10.68;;;26.40;63.00;;;;;;6131677;28;82988;-70
2023/08/20 11:20:39;;;;;;;10.40;9.30;;;26.30;62.40;;;;;;6120436;28;83190;-72
2023/08/20 11:23:41;;;;;;;20.92;9.60;;;26.30;62.50;;;;;;6121289;28;82571;-72
2023/08/20 11:26:42;;;;;;;10.10;9.02;;;26.30;62.70;;;;;;6120645;28;81320;-74
2023/08/20 11:29:43;;;;;;;10.75;8.82;;;26.20;62.60;;;;;;6107236;28;80536;-70
2023/08/20 11:32:45;;;;;;;9.55;8.52;;;26.20;62.60;;;;;;6140633;28;80496;-65
2023/08/20 11:35:45;;;;;;;12.73;10.35;;;26.20;62.30;;;;;;6139990;28;80340;-65
2023/08/20 11:38:46;;;;;;;21.98;13.55;;;26.20;63.40;;;;;;6145989;28;84839;-64
2023/08/20 11:41:46;;;;;;;28.88;15.73;;;26.20;64.60;;;;;;6122381;28;86000;-64
2023/08/20 11:44:47;;;;;;;19.75;13.95;;;26.10;64.70;;;;;;6123144;28;83154;-64
2023/08/20 11:47:47;;;;;;;30.08;16.42;;;26.10;65.10;;;;;;6120840;28;83237;-65
2023/08/20 11:50:48;;;;;;;58.75;25.67;;;26.10;65.20;;;;;;6110862;28;83887;-61
2023/08/20 11:53:48;;;;;;;40.00;19.25;;;26.10;64.90;;;;;;6114178;28;84442;-64
2023/08/20 11:56:49;;;;;;;27.05;16.83;;;26.10;65.20;;;;;;6115872;28;83826;-64
2023/08/20 11:59:49;;;;;;;26.45;15.18;;;26.00;64.90;;;;;;6107969;28;83136;-65
2023/08/20 12:02:50;;;;;;;22.90;14.10;;;26.10;64.90;;;;;;6105782;28;83571;-64
2023/08/20 12:05:51;;;;;;;18.55;12.88;;;26.00;64.60;;;;;;6113741;28;82893;-63
2023/08/20 12:08:51;;;;;;;14.55;12.07;;;26.10;64.90;;;;;;6124352;28;85065;-60
2023/08/20 12:11:52;;;;;;;13.77;11.27;;;26.10;65.00;;;;;;6111500;28;83126;-60
2023/08/20 12:14:52;;;;;;;14.38;11.70;;;26.10;64.70;;;;;;6101863;28;88805;-60
2023/08/20 12:17:53;;;;;;;14.18;10.80;;;26.00;64.70;;;;;;6113135;28;86324;-57
2023/08/20 12:20:54;;;;;;;13.95;11.25;;;26.00;64.90;;;;;;6119285;28;83122;-61
2023/08/20 12:23:54;;;;;;;11.90;10.60;;;26.40;71.00;;;;;;6123520;28;83249;-60
2023/08/20 12:26:55;;;;;;;15.07;11.30;;;26.80;70.00;;;;;;6124079;28;85594;-62
2023/08/20 12:29:55;;;;;;;14.27;10.80;;;26.90;72.40;;;;;;6135746;28;83441;-61
2023/08/20 12:32:56;;;;;;;13.48;10.38;;;26.80;67.60;;;;;;6122312;28;83626;-58
2023/08/20 12:35:56;;;;;;;18.30;12.90;;;26.60;66.90;;;;;;6113174;28;85643;-55
2023/08/20 12:38:57;;;;;;;24.55;14.27;;;26.80;73.80;;;;;;6140651;28;84363;-60
2023/08/20 12:41:57;;;;;;;25.48;13.68;;;27.10;75.60;;;;;;6110995;28;83383;-61
2023/08/20 12:44:58;;;;;;;28.05;14.35;;;27.30;77.70;;;;;;6128226;28;83298;-71
2023/08/20 12:47:58;;;;;;;27.38;13.88;;;27.40;78.00;;;;;;6125817;28;83909;-64
2023/08/20 12:50:59;;;;;;;24.05;13.85;;;27.60;79.10;;;;;;6107634;28;83117;-64
2023/08/20 12:53:59;;;;;;;27.10;15.13;;;27.70;80.60;;;;;;6134318;28;83380;-64
2023/08/20 12:57:00;;;;;;;29.48;14.43;;;27.80;81.50;;;;;;6136865;28;84004;-66
2023/08/20 13:00:00;;;;;;;24.73;13.50;;;28.00;83.90;;;;;;6117372;28;83270;-63
2023/08/20 13:03:01;;;;;;;25.10;13.85;;;28.10;84.20;;;;;;6131578;28;83987;-63
2023/08/20 13:06:02;;;;;;;29.10;15.95;;;28.20;85.00;;;;;;6125985;28;85431;-65
2023/08/20 13:09:03;;;;;;;19.50;12.93;;;28.30;85.70;;;;;;6133063;28;82929;-74
2023/08/20 13:12:05;;;;;;;18.73;13.00;;;28.40;86.00;;;;;;6133584;28;83521;-68
2023/08/20 13:15:06;;;;;;;19.85;13.15;;;28.50;85.70;;;;;;6125418;28;83891;-71
2023/08/20 13:18:07;;;;;;;19.52;12.85;;;28.60;83.70;;;;;;6134018;28;84508;-72
2023/08/20 13:21:09;;;;;;;20.98;12.50;;;28.60;84.70;;;;;;6109255;28;83720;-68
2023/08/20 13:24:09;;;;;;;16.38;12.82;;;28.70;85.00;;;;;;6140292;28;83011;-69
2023/08/20 13:27:10;;;;;;;20.90;12.63;;;28.80;84.60;;;;;;6134882;28;84289;-71
2023/08/20 13:30:10;;;;;;;18.60;12.43;;;28.80;84.80;;;;;;6124719;28;84129;-74
2023/08/20 13:33:11;;;;;;;18.00;12.43;;;28.80;84.10;;;;;;6145734;28;83593;-72
2023/08/20 13:36:11;;;;;;;14.82;11.10;;;28.80;83.20;;;;;;6135202;28;84603;-72
2023/08/20 13:39:13;;;;;;;14.90;12.02;;;28.80;83.00;;;;;;6125705;28;83161;-72
2023/08/20 13:42:14;;;;;;;16.40;12.18;;;28.80;82.60;;;;;;6116186;28;83122;-73
2023/08/20 13:45:14;;;;;;;12.85;11.38;;;28.80;82.60;;;;;;6136333;28;82926;-64
2023/08/20 13:48:15;;;;;;;14.90;11.73;;;28.90;82.90;;;;;;6132164;28;84431;-66
2023/08/20 13:51:15;;;;;;;16.88;12.15;;;28.90;83.30;;;;;;6118816;28;84018;-67
2023/08/20 13:54:16;;;;;;;15.13;11.98;;;28.90;84.60;;;;;;6136490;28;83683;-66
2023/08/20 13:57:16;;;;;;;19.08;12.15;;;28.90;84.20;;;;;;6134708;28;84275;-65
2023/08/20 14:00:17;;;;;;;15.95;12.48;;;29.00;84.50;;;;;;6119269;28;83270;-64
2023/08/20 14:03:17;;;;;;;17.98;13.57;;;29.00;84.80;;;;;;6114493;28;83334;-62
2023/08/20 14:06:18;;;;;;;27.85;17.50;;;29.00;84.20;;;;;;6127815;28;83958;-63
2023/08/20 14:09:18;;;;;;;38.28;24.73;;;29.00;83.50;;;;;;6126258;28;84451;-61
2023/08/20 14:12:19;;;;;;;33.45;23.48;;;29.00;82.80;;;;;;6110372;28;83127;-62
2023/08/20 14:15:20;;;;;;;41.78;23.45;;;29.00;82.50;;;;;;6124584;28;83770;-63
2023/08/20 14:18:21;;;;;;;33.33;23.38;;;28.90;82.20;;;;;;6124708;28;83205;-62
2023/08/20 14:21:21;;;;;;;34.92;23.52;;;28.90;81.90;;;;;;6113015;28;83566;-64
2023/08/20 14:24:22;;;;;;;35.67;24.05;;;28.90;81.70;;;;;;6120032;28;83067;-63
2023/08/20 14:27:22;;;;;;;33.13;20.92;;;28.90;81.60;;;;;;6123599;28;83625;-62
2023/08/20 14:30:23;;;;;;;34.00;21.85;;;28.90;81.00;;;;;;6123554;28;83680;-64
2023/08/20 14:33:23;;;;;;;33.08;20.58;;;28.90;80.90;;;;;;6120357;28;83061;-62
2023/08/20 14:36:24;;;;;;;30.98;19.45;;;28.80;80.00;;;;;;6125029;28;83290;-62
2023/08/20 14:39:25;;;;;;;30.42;19.10;;;28.80;79.90;;;;;;6126529;28;83090;-62
2023/08/20 14:42:25;;;;;;;31.50;19.98;;;28.80;79.70;;;;;;6126216;28;83318;-62
2023/08/20 14:45:26;;;;;;;30.25;19.30;;;28.80;79.70;;;;;;6118102;28;83585;-63
2023/08/20 14:48:27;;;;;;;28.30;18.10;;;28.80;79.40;;;;;;6109219;28;84183;-63
2023/08/20 14:51:28;;;;;;;31.42;17.70;;;28.80;79.20;;;;;;6126059;28;83351;-63
2023/08/20 14:54:28;;;;;;;23.42;17.80;;;28.80;79.00;;;;;;6120374;28;83109;-60
2023/08/20 14:57:29;;;;;;;27.58;17.85;;;28.80;78.90;;;;;;6113834;28;82865;-58
2023/08/20 15:00:29;;;;;;;25.92;16.23;;;28.70;79.40;;;;;;6113910;28;83678;-59
2023/08/20 15:03:30;;;;;;;27.25;18.63;;;28.70;78.60;;;;;;6113162;28;84052;-58
2023/08/20 15:06:31;;;;;;;23.55;16.77;;;28.70;78.50;;;;;;6119699;28;83150;-59
2023/08/20 15:09:31;;;;;;;27.30;17.58;;;28.70;78.40;;;;;;6125376;28;83153;-58
2023/08/20 15:12:32;;;;;;;24.83;17.75;;;28.70;78.30;;;;;;6125076;28;86024;-58
2023/08/20 15:15:32;;;;;;;29.60;19.80;;;28.70;78.10;;;;;;6134386;28;82789;-58
2023/08/20 15:18:33;;;;;;;25.30;18.67;;;28.70;78.00;;;;;;6129791;28;83220;-59
2023/08/20 15:21:33;;;;;;;30.33;19.13;;;28.70;78.00;;;;;;6111800;28;85485;-62
2023/08/20 15:24:34;;;;;;;23.40;18.17;;;28.60;77.80;;;;;;6122567;28;83818;-60